sensor_id;sensor_type;location;lat;lon;timestamp;pressure;altitude;pressure_sealevel;temperature;humidity
38616;BME280;24370;51.986;4.666;2022-11-15T00:02:04;100849.91;;;16.38;50.60
38616;BME280;24370;51.986;4.666;2022-11-15T00:04:30;100841.44;;;16.78;48.84
38616;BME280;24370;51.986;4.666;2022-11-15T00:06:55;100849.47;;;16.75;49.19
38616;BME280;24370;51.986;4.666;2022-11-15T00:09:21;100841.97;;;16.90;48.69
38616;BME280;24370;51.986;4.666;2022-11-15T00:11:46;100838.81;;;16.53;49.71
38616;BME280;24370;51.986;4.666;2022-11-15T00:14:11;100838.41;;;16.91;48.97
38616;BME280;24370;51.986;4.666;2022-11-15T00:16:37;100835.94;;;16.59;48.95
38616;BME280;24370;51.986;4.666;2022-11-15T00:19:02;100828.38;;;16.50;49.44
38616;BME280;24370;51.986;4.666;2022-11-15T00:21:28;100842.91;;;16.37;50.92
38616;BME280;24370;51.986;4.666;2022-11-15T00:23:53;100835.75;;;16.14;51.76
38616;BME280;24370;51.986;4.666;2022-11-15T00:26:18;100825.03;;;16.20;50.95
38616;BME280;24370;51.986;4.666;2022-11-15T00:28:44;100827.31;;;16.56;49.62
38616;BME280;24370;51.986;4.666;2022-11-15T00:31:12;100828.63;;;16.42;51.07
38616;BME280;24370;51.986;4.666;2022-11-15T00:33:38;100822.88;;;16.82;49.73
38616;BME280;24370;51.986;4.666;2022-11-15T00:36:06;100821.47;;;17.44;47.83
38616;BME280;24370;51.986;4.666;2022-11-15T00:38:37;100819.25;;;16.84;49.08
38616;BME280;24370;51.986;4.666;2022-11-15T00:41:04;100820.59;;;16.45;50.44
38616;BME280;24370;51.986;4.666;2022-11-15T00:43:30;100820.72;;;16.42;51.77
38616;BME280;24370;51.986;4.666;2022-11-15T00:45:56;100815.75;;;16.84;49.57
38616;BME280;24370;51.986;4.666;2022-11-15T00:48:22;100808.66;;;17.33;48.14
38616;BME280;24370;51.986;4.666;2022-11-15T00:50:48;100807.81;;;16.60;50.70
38616;BME280;24370;51.986;4.666;2022-11-15T00:53:13;100810.91;;;16.71;50.77
38616;BME280;24370;51.986;4.666;2022-11-15T00:55:39;100800.75;;;17.33;48.90
38616;BME280;24370;51.986;4.666;2022-11-15T00:58:04;100807.59;;;16.16;51.60
38616;BME280;24370;51.986;4.666;2022-11-15T01:00:29;100810.06;;;16.45;51.57
38616;BME280;24370;51.986;4.666;2022-11-15T01:02:56;100809.91;;;17.46;48.77
38616;BME280;24370;51.986;4.666;2022-11-15T01:05:22;100799.56;;;17.40;48.92
38616;BME280;24370;51.986;4.666;2022-11-15T01:07:51;100803.31;;;16.62;50.42
38616;BME280;24370;51.986;4.666;2022-11-15T01:10:17;100786.44;;;17.39;49.03
38616;BME280;24370;51.986;4.666;2022-11-15T01:12:42;100791.97;;;17.33;49.15
38616;BME280;24370;51.986;4.666;2022-11-15T01:15:08;100788.78;;;17.69;48.12
38616;BME280;24370;51.986;4.666;2022-11-15T01:17:33;100784.56;;;16.95;49.88
38616;BME280;24370;51.986;4.666;2022-11-15T01:19:58;100779.91;;;16.27;51.90
38616;BME280;24370;51.986;4.666;2022-11-15T01:22:24;100781.44;;;16.60;51.94
38616;BME280;24370;51.986;4.666;2022-11-15T01:24:50;100779.13;;;16.74;51.49
38616;BME280;24370;51.986;4.666;2022-11-15T01:27:16;100784.44;;;17.22;50.57
38616;BME280;24370;51.986;4.666;2022-11-15T01:29:41;100773.25;;;17.81;49.02
38616;BME280;24370;51.986;4.666;2022-11-15T01:32:07;100773.34;;;16.90;51.40
38616;BME280;24370;51.986;4.666;2022-11-15T01:34:32;100774.81;;;16.97;51.35
38616;BME280;24370;51.986;4.666;2022-11-15T01:36:58;100772.59;;;17.32;50.80
38616;BME280;24370;51.986;4.666;2022-11-15T01:39:23;100780.50;;;16.61;52.31
38616;BME280;24370;51.986;4.666;2022-11-15T01:41:49;100769.09;;;17.76;49.73
38616;BME280;24370;51.986;4.666;2022-11-15T01:47:01;100764.28;;;17.86;49.42
38616;BME280;24370;51.986;4.666;2022-11-15T01:49:30;100761.22;;;17.74;49.22
38616;BME280;24370;51.986;4.666;2022-11-15T01:51:58;100763.53;;;17.16;49.93
38616;BME280;24370;51.986;4.666;2022-11-15T01:54:25;100758.59;;;17.74;49.84
38616;BME280;24370;51.986;4.666;2022-11-15T01:56:53;100758.25;;;17.16;51.02
38616;BME280;24370;51.986;4.666;2022-11-15T01:59:21;100755.59;;;17.39;51.02
38616;BME280;24370;51.986;4.666;2022-11-15T02:01:47;100754.34;;;17.92;49.47
38616;BME280;24370;51.986;4.666;2022-11-15T02:04:16;100750.16;;;17.87;49.48
38616;BME280;24370;51.986;4.666;2022-11-15T02:06:43;100744.53;;;18.17;48.94
38616;BME280;24370;51.986;4.666;2022-11-15T02:09:11;100740.09;;;17.30;51.37
38616;BME280;24370;51.986;4.666;2022-11-15T02:11:37;100732.19;;;17.30;51.00
38616;BME280;24370;51.986;4.666;2022-11-15T02:14:03;100726.00;;;17.96;49.99
38616;BME280;24370;51.986;4.666;2022-11-15T02:17:08;100722.72;;;17.02;52.24
38616;BME280;24370;51.986;4.666;2022-11-15T02:28:44;100710.16;;;17.07;53.16
38616;BME280;24370;51.986;4.666;2022-11-15T02:37:34;100703.41;;;18.09;50.77
38616;BME280;24370;51.986;4.666;2022-11-15T02:39:58;100697.06;;;17.93;51.55
38616;BME280;24370;51.986;4.666;2022-11-15T02:42:32;100692.03;;;18.47;49.46
38616;BME280;24370;51.986;4.666;2022-11-15T02:45:37;100697.47;;;18.82;48.68
38616;BME280;24370;51.986;4.666;2022-11-15T02:48:06;100689.50;;;18.04;51.28
38616;BME280;24370;51.986;4.666;2022-11-15T02:50:32;100688.28;;;18.32;50.26
38616;BME280;24370;51.986;4.666;2022-11-15T02:52:58;100689.88;;;18.36;50.57
38616;BME280;24370;51.986;4.666;2022-11-15T02:55:35;100686.63;;;18.29;50.42
38616;BME280;24370;51.986;4.666;2022-11-15T03:00:44;100681.78;;;18.98;49.15
38616;BME280;24370;51.986;4.666;2022-11-15T03:03:25;100694.13;;;18.78;49.61
38616;BME280;24370;51.986;4.666;2022-11-15T03:08:35;100686.97;;;17.80;52.50
38616;BME280;24370;51.986;4.666;2022-11-15T03:11:09;100684.72;;;17.71;53.41
38616;BME280;24370;51.986;4.666;2022-11-15T03:16:15;100681.19;;;17.93;53.54
38616;BME280;24370;51.986;4.666;2022-11-15T03:18:48;100681.84;;;17.55;55.47
38616;BME280;24370;51.986;4.666;2022-11-15T03:21:15;100678.25;;;18.59;51.98
38616;BME280;24370;51.986;4.666;2022-11-15T03:23:44;100679.91;;;18.62;52.34
38616;BME280;24370;51.986;4.666;2022-11-15T03:26:12;100679.56;;;18.30;52.72
38616;BME280;24370;51.986;4.666;2022-11-15T03:28:44;100691.94;;;19.07;50.57
38616;BME280;24370;51.986;4.666;2022-11-15T03:31:12;100688.75;;;18.61;52.13
38616;BME280;24370;51.986;4.666;2022-11-15T03:34:00;100686.19;;;18.59;52.05
38616;BME280;24370;51.986;4.666;2022-11-15T03:36:28;100683.66;;;18.96;50.96
38616;BME280;24370;51.986;4.666;2022-11-15T03:39:00;100681.41;;;19.06;51.33
38616;BME280;24370;51.986;4.666;2022-11-15T03:41:47;100679.66;;;19.24;50.45
38616;BME280;24370;51.986;4.666;2022-11-15T03:47:21;100686.47;;;18.72;52.02
38616;BME280;24370;51.986;4.666;2022-11-15T03:49:59;100691.38;;;19.01;51.32
38616;BME280;24370;51.986;4.666;2022-11-15T03:52:31;100686.44;;;19.29;50.74
38616;BME280;24370;51.986;4.666;2022-11-15T03:55:00;100681.63;;;19.01;51.76
38616;BME280;24370;51.986;4.666;2022-11-15T03:57:26;100681.75;;;18.60;52.64
38616;BME280;24370;51.986;4.666;2022-11-15T03:59:51;100675.25;;;18.48;53.67
38616;BME280;24370;51.986;4.666;2022-11-15T04:02:16;100669.44;;;19.16;52.06
38616;BME280;24370;51.986;4.666;2022-11-15T04:04:42;100668.78;;;19.47;51.70
38616;BME280;24370;51.986;4.666;2022-11-15T04:07:07;100668.16;;;18.87;52.92
38616;BME280;24370;51.986;4.666;2022-11-15T04:09:33;100662.56;;;19.66;50.93
38616;BME280;24370;51.986;4.666;2022-11-15T04:11:58;100669.94;;;19.77;50.64
38616;BME280;24370;51.986;4.666;2022-11-15T04:14:23;100668.94;;;19.79;50.60
38616;BME280;24370;51.986;4.666;2022-11-15T04:16:49;100655.66;;;18.71;52.27
38616;BME280;24370;51.986;4.666;2022-11-15T04:19:14;100654.09;;;19.23;52.93
38616;BME280;24370;51.986;4.666;2022-11-15T04:21:58;100650.25;;;19.65;51.53
38616;BME280;24370;51.986;4.666;2022-11-15T04:24:42;100651.97;;;19.83;50.34
38616;BME280;24370;51.986;4.666;2022-11-15T04:27:08;100646.97;;;19.60;50.89
38616;BME280;24370;51.986;4.666;2022-11-15T04:29:33;100648.53;;;19.64;50.39
38616;BME280;24370;51.986;4.666;2022-11-15T04:32:06;100650.97;;;19.14;52.06
38616;BME280;24370;51.986;4.666;2022-11-15T04:34:32;100660.69;;;19.33;51.53
38616;BME280;24370;51.986;4.666;2022-11-15T04:36:58;100657.16;;;18.96;53.48
38616;BME280;24370;51.986;4.666;2022-11-15T04:39:39;100667.19;;;19.08;52.39
38616;BME280;24370;51.986;4.666;2022-11-15T04:42:05;100662.28;;;18.80;53.68
38616;BME280;24370;51.986;4.666;2022-11-15T04:44:30;100665.50;;;18.48;54.81
38616;BME280;24370;51.986;4.666;2022-11-15T04:46:56;100671.84;;;18.44;54.67
38616;BME280;24370;51.986;4.666;2022-11-15T04:49:21;100674.31;;;19.06;53.88
38616;BME280;24370;51.986;4.666;2022-11-15T04:51:47;100667.66;;;18.78;54.61
38616;BME280;24370;51.986;4.666;2022-11-15T04:54:12;100677.63;;;19.11;53.11
38616;BME280;24370;51.986;4.666;2022-11-15T04:56:37;100675.13;;;19.26;52.90
38616;BME280;24370;51.986;4.666;2022-11-15T04:59:03;100672.31;;;19.11;52.64
38616;BME280;24370;51.986;4.666;2022-11-15T05:01:28;100676.81;;;19.09;53.19
38616;BME280;24370;51.986;4.666;2022-11-15T05:03:54;100680.31;;;19.29;53.14
38616;BME280;24370;51.986;4.666;2022-11-15T05:06:38;100684.22;;;18.04;58.14
38616;BME280;24370;51.986;4.666;2022-11-15T05:09:03;100677.44;;;18.38;56.48
38616;BME280;24370;51.986;4.666;2022-11-15T05:11:29;100683.00;;;18.91;55.23
38616;BME280;24370;51.986;4.666;2022-11-15T05:13:54;100681.28;;;18.31;57.05
38616;BME280;24370;51.986;4.666;2022-11-15T05:16:20;100688.59;;;18.64;55.76
38616;BME280;24370;51.986;4.666;2022-11-15T05:18:45;100695.69;;;18.44;56.78
38616;BME280;24370;51.986;4.666;2022-11-15T05:21:13;100691.19;;;18.65;55.92
38616;BME280;24370;51.986;4.666;2022-11-15T05:23:39;100683.94;;;18.90;55.71
38616;BME280;24370;51.986;4.666;2022-11-15T05:26:07;100677.88;;;19.05;54.60
38616;BME280;24370;51.986;4.666;2022-11-15T05:28:33;100687.56;;;19.06;54.61
38616;BME280;24370;51.986;4.666;2022-11-15T05:31:06;100679.53;;;18.51;55.57
38616;BME280;24370;51.986;4.666;2022-11-15T05:33:33;100680.44;;;19.26;54.27
38616;BME280;24370;51.986;4.666;2022-11-15T05:36:04;100669.16;;;19.40;53.19
38616;BME280;24370;51.986;4.666;2022-11-15T05:38:31;100674.00;;;18.36;56.71
38616;BME280;24370;51.986;4.666;2022-11-15T05:40:59;100672.25;;;18.94;54.18
38616;BME280;24370;51.986;4.666;2022-11-15T05:43:25;100678.59;;;18.52;56.44
38616;BME280;24370;51.986;4.666;2022-11-15T05:45:51;100664.84;;;18.81;54.63
38616;BME280;24370;51.986;4.666;2022-11-15T05:48:16;100680.91;;;19.17;53.86
38616;BME280;24370;51.986;4.666;2022-11-15T05:50:44;100670.56;;;18.72;53.66
38616;BME280;24370;51.986;4.666;2022-11-15T05:53:12;100680.09;;;18.76;55.87
38616;BME280;24370;51.986;4.666;2022-11-15T05:55:39;100672.28;;;18.54;55.85
38616;BME280;24370;51.986;4.666;2022-11-15T05:58:05;100683.03;;;18.51;56.08
38616;BME280;24370;51.986;4.666;2022-11-15T06:00:31;100680.03;;;17.78;57.33
38616;BME280;24370;51.986;4.666;2022-11-15T06:02:57;100683.69;;;18.17;56.74
38616;BME280;24370;51.986;4.666;2022-11-15T06:05:22;100692.06;;;18.66;55.96
38616;BME280;24370;51.986;4.666;2022-11-15T06:07:47;100681.78;;;18.98;53.60
38616;BME280;24370;51.986;4.666;2022-11-15T06:10:13;100690.22;;;19.06;52.27
38616;BME280;24370;51.986;4.666;2022-11-15T06:12:38;100697.19;;;19.45;51.75
38616;BME280;24370;51.986;4.666;2022-11-15T06:15:04;100697.69;;;19.52;52.04
38616;BME280;24370;51.986;4.666;2022-11-15T06:17:29;100704.72;;;19.53;51.44
38616;BME280;24370;51.986;4.666;2022-11-15T06:19:55;100700.13;;;19.20;52.75
38616;BME280;24370;51.986;4.666;2022-11-15T06:22:20;100706.06;;;19.79;50.49
38616;BME280;24370;51.986;4.666;2022-11-15T06:24:46;100713.13;;;18.88;52.34
38616;BME280;24370;51.986;4.666;2022-11-15T06:27:11;100712.97;;;18.91;53.65
38616;BME280;24370;51.986;4.666;2022-11-15T06:29:37;100722.09;;;18.65;54.15
38616;BME280;24370;51.986;4.666;2022-11-15T06:32:02;100720.53;;;17.78;55.71
38616;BME280;24370;51.986;4.666;2022-11-15T06:34:28;100718.00;;;17.55;56.45
38616;BME280;24370;51.986;4.666;2022-11-15T06:36:53;100717.16;;;18.76;52.85
38616;BME280;24370;51.986;4.666;2022-11-15T06:39:19;100706.53;;;18.97;52.03
38616;BME280;24370;51.986;4.666;2022-11-15T06:41:44;100710.97;;;18.38;52.23
38616;BME280;24370;51.986;4.666;2022-11-15T06:44:10;100709.41;;;18.53;52.58
38616;BME280;24370;51.986;4.666;2022-11-15T06:46:35;100711.91;;;18.56;52.63
38616;BME280;24370;51.986;4.666;2022-11-15T06:49:01;100718.19;;;19.31;49.92
38616;BME280;24370;51.986;4.666;2022-11-15T06:51:26;100712.94;;;18.72;50.01
38616;BME280;24370;51.986;4.666;2022-11-15T06:53:51;100722.00;;;18.27;53.00
38616;BME280;24370;51.986;4.666;2022-11-15T06:56:17;100730.22;;;18.41;52.31
38616;BME280;24370;51.986;4.666;2022-11-15T06:58:42;100734.19;;;18.31;52.77
38616;BME280;24370;51.986;4.666;2022-11-15T07:01:10;100735.00;;;18.33;51.78
38616;BME280;24370;51.986;4.666;2022-11-15T07:03:40;100733.16;;;19.32;49.20
38616;BME280;24370;51.986;4.666;2022-11-15T07:06:07;100726.69;;;18.80;50.35
38616;BME280;24370;51.986;4.666;2022-11-15T07:08:34;100728.88;;;18.52;50.86
38616;BME280;24370;51.986;4.666;2022-11-15T07:11:02;100713.28;;;19.04;49.98
38616;BME280;24370;51.986;4.666;2022-11-15T07:13:29;100717.81;;;18.81;50.45
38616;BME280;24370;51.986;4.666;2022-11-15T07:16:01;100726.22;;;18.91;50.06
38616;BME280;24370;51.986;4.666;2022-11-15T07:18:26;100725.66;;;18.04;52.70
38616;BME280;24370;51.986;4.666;2022-11-15T07:20:52;100717.94;;;17.99;53.02
38616;BME280;24370;51.986;4.666;2022-11-15T07:23:17;100725.00;;;18.79;50.56
38616;BME280;24370;51.986;4.666;2022-11-15T07:25:43;100725.06;;;18.97;49.94
38616;BME280;24370;51.986;4.666;2022-11-15T07:28:08;100724.28;;;18.95;50.31
38616;BME280;24370;51.986;4.666;2022-11-15T07:30:34;100733.81;;;18.59;51.30
38616;BME280;24370;51.986;4.666;2022-11-15T07:33:00;100735.22;;;18.47;50.98
38616;BME280;24370;51.986;4.666;2022-11-15T07:35:27;100731.50;;;17.90;53.15
38616;BME280;24370;51.986;4.666;2022-11-15T07:38:02;100722.25;;;18.62;50.14
38616;BME280;24370;51.986;4.666;2022-11-15T07:40:30;100708.59;;;19.09;48.63
38616;BME280;24370;51.986;4.666;2022-11-15T07:43:01;100715.16;;;18.81;48.57
38616;BME280;24370;51.986;4.666;2022-11-15T07:45:27;100715.44;;;19.32;47.73
38616;BME280;24370;51.986;4.666;2022-11-15T07:47:53;100713.03;;;19.28;47.66
38616;BME280;24370;51.986;4.666;2022-11-15T07:50:18;100715.28;;;18.99;48.42
38616;BME280;24370;51.986;4.666;2022-11-15T07:52:44;100719.00;;;18.95;48.73
38616;BME280;24370;51.986;4.666;2022-11-15T07:55:11;100719.78;;;18.38;50.45
38616;BME280;24370;51.986;4.666;2022-11-15T07:57:36;100715.66;;;19.47;47.97
38616;BME280;24370;51.986;4.666;2022-11-15T08:00:03;100710.00;;;19.36;47.65
38616;BME280;24370;51.986;4.666;2022-11-15T08:02:29;100707.06;;;19.42;47.89
38616;BME280;24370;51.986;4.666;2022-11-15T08:04:54;100710.06;;;18.58;49.83
38616;BME280;24370;51.986;4.666;2022-11-15T08:07:20;100704.75;;;19.34;48.24
38616;BME280;24370;51.986;4.666;2022-11-15T08:09:45;100700.72;;;18.51;49.94
38616;BME280;24370;51.986;4.666;2022-11-15T08:12:11;100688.41;;;19.43;47.84
38616;BME280;24370;51.986;4.666;2022-11-15T08:14:36;100692.34;;;18.79;50.04
38616;BME280;24370;51.986;4.666;2022-11-15T08:17:01;100693.72;;;18.29;50.78
38616;BME280;24370;51.986;4.666;2022-11-15T08:19:27;100689.28;;;17.88;52.62
38616;BME280;24370;51.986;4.666;2022-11-15T08:21:52;100689.19;;;17.90;52.71
38616;BME280;24370;51.986;4.666;2022-11-15T08:24:17;100684.44;;;18.39;51.49
38616;BME280;24370;51.986;4.666;2022-11-15T08:26:43;100677.97;;;18.46;51.85
38616;BME280;24370;51.986;4.666;2022-11-15T08:29:08;100689.47;;;18.64;51.21
38616;BME280;24370;51.986;4.666;2022-11-15T08:31:35;100682.75;;;18.38;52.20
38616;BME280;24370;51.986;4.666;2022-11-15T08:34:02;100679.31;;;17.95;53.91
38616;BME280;24370;51.986;4.666;2022-11-15T08:36:28;100682.03;;;18.54;52.33
38616;BME280;24370;51.986;4.666;2022-11-15T08:38:53;100681.28;;;18.10;53.59
38616;BME280;24370;51.986;4.666;2022-11-15T08:41:31;100675.72;;;18.37;52.59
38616;BME280;24370;51.986;4.666;2022-11-15T08:43:57;100676.19;;;18.66;52.40
38616;BME280;24370;51.986;4.666;2022-11-15T08:46:22;100676.75;;;18.54;51.88
38616;BME280;24370;51.986;4.666;2022-11-15T08:48:48;100672.19;;;18.95;50.82
38616;BME280;24370;51.986;4.666;2022-11-15T08:51:14;100663.88;;;18.65;51.09
38616;BME280;24370;51.986;4.666;2022-11-15T08:53:40;100664.31;;;18.35;52.03
38616;BME280;24370;51.986;4.666;2022-11-15T08:56:13;100666.94;;;17.95;53.27
38616;BME280;24370;51.986;4.666;2022-11-15T08:58:40;100652.56;;;18.42;52.14
38616;BME280;24370;51.986;4.666;2022-11-15T09:01:05;100653.25;;;18.46;52.15
38616;BME280;24370;51.986;4.666;2022-11-15T09:03:31;100653.97;;;17.48;54.97
38616;BME280;24370;51.986;4.666;2022-11-15T09:05:57;100648.13;;;18.03;54.00
38616;BME280;24370;51.986;4.666;2022-11-15T09:08:24;100664.75;;;17.64;53.98
38616;BME280;24370;51.986;4.666;2022-11-15T09:10:50;100669.91;;;17.67;53.88
38616;BME280;24370;51.986;4.666;2022-11-15T09:13:16;100668.75;;;17.95;52.97
38616;BME280;24370;51.986;4.666;2022-11-15T09:15:42;100665.69;;;18.25;52.76
38616;BME280;24370;51.986;4.666;2022-11-15T09:18:07;100664.84;;;18.43;52.32
38616;BME280;24370;51.986;4.666;2022-11-15T09:20:33;100667.72;;;18.58;51.34
38616;BME280;24370;51.986;4.666;2022-11-15T09:23:02;100666.44;;;17.65;53.58
38616;BME280;24370;51.986;4.666;2022-11-15T09:25:28;100665.75;;;18.63;51.55
38616;BME280;24370;51.986;4.666;2022-11-15T09:27:53;100664.84;;;18.43;52.32
38616;BME280;24370;51.986;4.666;2022-11-15T09:30:19;100651.97;;;18.36;52.66
38616;BME280;24370;51.986;4.666;2022-11-15T09:32:44;100653.78;;;18.14;52.09
38616;BME280;24370;51.986;4.666;2022-11-15T09:35:09;100662.63;;;18.34;51.71
38616;BME280;24370;51.986;4.666;2022-11-15T09:37:35;100669.00;;;18.49;51.34
38616;BME280;24370;51.986;4.666;2022-11-15T09:40:00;100660.41;;;18.25;52.29
38616;BME280;24370;51.986;4.666;2022-11-15T09:42:47;100651.94;;;18.17;52.30
38616;BME280;24370;51.986;4.666;2022-11-15T09:48:22;100660.63;;;19.87;48.55
38616;BME280;24370;51.986;4.666;2022-11-15T09:50:51;100659.16;;;18.91;49.56
38616;BME280;24370;51.986;4.666;2022-11-15T09:53:33;100652.34;;;19.04;49.83
38616;BME280;24370;51.986;4.666;2022-11-15T09:56:03;100649.94;;;19.54;47.98
38616;BME280;24370;51.986;4.666;2022-11-15T09:58:39;100645.66;;;19.14;48.91
38616;BME280;24370;51.986;4.666;2022-11-15T10:02:14;100640.78;;;19.24;47.53
38616;BME280;24370;51.986;4.666;2022-11-15T10:04:17;100626.97;;;20.05;46.05
38616;BME280;24370;51.986;4.666;2022-11-15T10:06:49;100639.81;;;19.62;47.13
38616;BME280;24370;51.986;4.666;2022-11-15T10:09:28;100624.50;;;20.02;46.32
38616;BME280;24370;51.986;4.666;2022-11-15T10:11:57;100624.13;;;20.26;45.54
38616;BME280;24370;51.986;4.666;2022-11-15T10:14:25;100616.00;;;19.60;46.68
38616;BME280;24370;51.986;4.666;2022-11-15T10:20:28;100612.16;;;19.13;47.91
38616;BME280;24370;51.986;4.666;2022-11-15T10:23:01;100614.94;;;20.15;45.45
38616;BME280;24370;51.986;4.666;2022-11-15T10:25:32;100604.59;;;20.27;45.01
38616;BME280;24370;51.986;4.666;2022-11-15T10:30:46;100602.75;;;20.45;44.50
38616;BME280;24370;51.986;4.666;2022-11-15T10:33:25;100595.53;;;21.41;42.91
38616;BME280;24370;51.986;4.666;2022-11-15T10:46:33;100567.72;;;20.38;43.43
38616;BME280;24370;51.986;4.666;2022-11-15T10:54:10;100575.34;;;19.26;46.28
38616;BME280;24370;51.986;4.666;2022-11-15T10:56:39;100562.13;;;18.52;47.38
38616;BME280;24370;51.986;4.666;2022-11-15T10:59:15;100568.22;;;19.09;46.79
38616;BME280;24370;51.986;4.666;2022-11-15T11:01:47;100570.72;;;18.38;47.86
38616;BME280;24370;51.986;4.666;2022-11-15T11:04:13;100570.53;;;18.98;46.62
38616;BME280;24370;51.986;4.666;2022-11-15T11:06:53;100571.09;;;19.40;45.57
38616;BME280;24370;51.986;4.666;2022-11-15T11:09:37;100559.66;;;19.22;46.29
38616;BME280;24370;51.986;4.666;2022-11-15T11:12:05;100555.06;;;19.43;45.59
38616;BME280;24370;51.986;4.666;2022-11-15T11:14:33;100537.94;;;19.83;44.81
38616;BME280;24370;51.986;4.666;2022-11-15T11:17:27;100537.06;;;19.49;45.25
38616;BME280;24370;51.986;4.666;2022-11-15T11:25:53;100517.28;;;20.38;43.21
38616;BME280;24370;51.986;4.666;2022-11-15T11:37:10;100496.56;;;19.97;42.88
38616;BME280;24370;51.986;4.666;2022-11-15T11:47:47;100487.53;;;20.79;42.69
38616;BME280;24370;51.986;4.666;2022-11-15T11:50:17;100482.03;;;21.13;41.84
38616;BME280;24370;51.986;4.666;2022-11-15T11:55:43;100471.38;;;20.52;42.29
38616;BME280;24370;51.986;4.666;2022-11-15T11:58:26;100456.03;;;22.19;39.89
38616;BME280;24370;51.986;4.666;2022-11-15T12:00:57;100457.94;;;21.30;40.58
38616;BME280;24370;51.986;4.666;2022-11-15T12:03:42;100448.84;;;21.34;40.66
38616;BME280;24370;51.986;4.666;2022-11-15T12:06:23;100441.56;;;21.52;40.99
38616;BME280;24370;51.986;4.666;2022-11-15T12:09:04;100444.19;;;21.09;41.04
38616;BME280;24370;51.986;4.666;2022-11-15T12:14:26;100427.31;;;21.54;40.03
38616;BME280;24370;51.986;4.666;2022-11-15T12:16:52;100425.59;;;20.48;41.97
38616;BME280;24370;51.986;4.666;2022-11-15T12:19:18;100420.41;;;22.07;39.32
38616;BME280;24370;51.986;4.666;2022-11-15T12:24:45;100413.78;;;22.55;38.43
38616;BME280;24370;51.986;4.666;2022-11-15T12:27:44;100395.03;;;21.31;40.38
38616;BME280;24370;51.986;4.666;2022-11-15T12:30:16;100404.56;;;21.91;39.38
38616;BME280;24370;51.986;4.666;2022-11-15T12:32:59;100398.66;;;21.59;39.81
38616;BME280;24370;51.986;4.666;2022-11-15T12:37:55;100386.84;;;21.05;40.18
38616;BME280;24370;51.986;4.666;2022-11-15T12:40:22;100383.63;;;21.29;39.72
38616;BME280;24370;51.986;4.666;2022-11-15T12:45:44;100381.72;;;20.57;40.03
38616;BME280;24370;51.986;4.666;2022-11-15T13:01:52;100359.63;;;21.16;40.25
38616;BME280;24370;51.986;4.666;2022-11-15T13:06:53;100348.16;;;20.26;41.28
38616;BME280;24370;51.986;4.666;2022-11-15T13:14:53;100336.75;;;20.99;39.54
38616;BME280;24370;51.986;4.666;2022-11-15T13:22:20;100330.72;;;20.06;40.90
38616;BME280;24370;51.986;4.666;2022-11-15T13:28:00;100322.34;;;21.17;38.57
38616;BME280;24370;51.986;4.666;2022-11-15T13:30:30;100315.41;;;21.15;38.79
38616;BME280;24370;51.986;4.666;2022-11-15T13:32:58;100304.69;;;20.88;39.48
38616;BME280;24370;51.986;4.666;2022-11-15T13:35:28;100312.00;;;20.39;40.52
38616;BME280;24370;51.986;4.666;2022-11-15T13:37:56;100304.41;;;20.47;39.82
38616;BME280;24370;51.986;4.666;2022-11-15T13:40:34;100292.22;;;20.29;39.56
38616;BME280;24370;51.986;4.666;2022-11-15T13:43:17;100297.94;;;21.11;37.90
38616;BME280;24370;51.986;4.666;2022-11-15T13:48:33;100285.69;;;20.65;38.57
38616;BME280;24370;51.986;4.666;2022-11-15T13:51:02;100271.81;;;20.60;39.21
38616;BME280;24370;51.986;4.666;2022-11-15T13:53:29;100273.75;;;20.87;39.46
38616;BME280;24370;51.986;4.666;2022-11-15T13:55:56;100280.38;;;21.23;38.64
38616;BME280;24370;51.986;4.666;2022-11-15T13:58:23;100267.31;;;19.87;41.19
38616;BME280;24370;51.986;4.666;2022-11-15T14:01:01;100257.22;;;20.67;40.20
38616;BME280;24370;51.986;4.666;2022-11-15T14:03:32;100249.56;;;20.77;40.15
38616;BME280;24370;51.986;4.666;2022-11-15T14:08:39;100238.94;;;20.03;40.75
38616;BME280;24370;51.986;4.666;2022-11-15T14:11:12;100229.38;;;20.15;40.71
38616;BME280;24370;51.986;4.666;2022-11-15T14:13:38;100220.88;;;20.39;39.93
38616;BME280;24370;51.986;4.666;2022-11-15T14:16:18;100221.03;;;20.80;39.82
38616;BME280;24370;51.986;4.666;2022-11-15T14:21:11;100216.47;;;19.78;41.25
38616;BME280;24370;51.986;4.666;2022-11-15T14:23:37;100211.75;;;19.37;42.34
38616;BME280;24370;51.986;4.666;2022-11-15T14:26:02;100199.00;;;19.90;41.40
38616;BME280;24370;51.986;4.666;2022-11-15T14:28:32;100195.03;;;19.97;40.58
38616;BME280;24370;51.986;4.666;2022-11-15T14:31:04;100199.44;;;20.13;40.70
38616;BME280;24370;51.986;4.666;2022-11-15T14:33:36;100196.69;;;19.54;41.88
38616;BME280;24370;51.986;4.666;2022-11-15T14:36:22;100195.72;;;20.75;39.35
38616;BME280;24370;51.986;4.666;2022-11-15T14:38:47;100185.13;;;20.01;41.07
38616;BME280;24370;51.986;4.666;2022-11-15T14:41:21;100188.69;;;19.86;41.05
38616;BME280;24370;51.986;4.666;2022-11-15T14:43:48;100175.59;;;20.85;39.86
38616;BME280;24370;51.986;4.666;2022-11-15T14:46:13;100172.28;;;20.38;40.45
38616;BME280;24370;51.986;4.666;2022-11-15T14:48:39;100169.19;;;20.01;41.39
38616;BME280;24370;51.986;4.666;2022-11-15T14:51:13;100159.88;;;19.33;42.77
38616;BME280;24370;51.986;4.666;2022-11-15T14:53:39;100167.03;;;19.47;42.00
38616;BME280;24370;51.986;4.666;2022-11-15T14:56:05;100167.63;;;20.13;40.92
38616;BME280;24370;51.986;4.666;2022-11-15T14:58:30;100162.41;;;20.55;40.66
38616;BME280;24370;51.986;4.666;2022-11-15T15:00:55;100159.50;;;19.39;43.09
38616;BME280;24370;51.986;4.666;2022-11-15T15:03:21;100160.94;;;19.61;42.86
38616;BME280;24370;51.986;4.666;2022-11-15T15:05:46;100144.94;;;19.93;42.30
38616;BME280;24370;51.986;4.666;2022-11-15T15:08:12;100145.34;;;20.15;40.88